createdAt,value
2017-10-21T00:01:52.110Z,8.90
2017-10-21T00:04:20.540Z,8.92
2017-10-21T00:06:49.831Z,8.92
2017-10-21T00:09:21.607Z,8.80
2017-10-21T00:11:50.889Z,8.84
2017-10-21T00:14:22.370Z,8.94
2017-10-21T00:16:52.948Z,8.97
2017-10-21T00:19:21.274Z,9.00
2017-10-21T00:21:51.491Z,9.00
2017-10-21T00:24:20.872Z,8.89
2017-10-21T00:26:50.385Z,8.91
2017-10-21T00:29:18.758Z,8.85
2017-10-21T00:31:51.162Z,8.94
2017-10-21T00:34:20.445Z,8.97
2017-10-21T00:36:48.844Z,8.92
2017-10-21T00:39:18.154Z,8.91
2017-10-21T00:41:46.491Z,8.90
2017-10-21T00:44:14.919Z,8.96
2017-10-21T00:46:43.263Z,9.01
2017-10-21T00:49:14.630Z,9.00
2017-10-21T00:51:45.858Z,8.98
2017-10-21T00:54:14.258Z,9.07
2017-10-21T00:56:43.555Z,9.16
2017-10-21T00:59:12.853Z,9.19
2017-10-21T01:01:42.176Z,9.24
2017-10-21T01:04:12.714Z,9.29
2017-10-21T01:06:43.232Z,9.31
2017-10-21T01:09:12.513Z,9.33
2017-10-21T01:11:41.836Z,9.31
2017-10-21T01:14:11.124Z,9.36
2017-10-21T01:16:40.425Z,9.30
2017-10-21T01:19:09.775Z,9.28
2017-10-21T01:21:40.232Z,9.32
2017-10-21T01:24:08.647Z,9.35
2017-10-21T01:26:37.915Z,9.27
2017-10-21T01:29:06.586Z,9.23
2017-10-21T01:31:38.678Z,9.25
2017-10-21T01:34:07.342Z,9.30
2017-10-21T01:36:35.751Z,9.33
2017-10-21T01:39:05.062Z,9.35
2017-10-21T01:41:34.367Z,9.42
2017-10-21T01:44:03.654Z,9.47
2017-10-21T01:46:34.201Z,9.47
2017-10-21T01:49:03.506Z,9.51
2017-10-21T01:51:33.097Z,9.60
2017-10-21T01:54:03.642Z,9.49
2017-10-21T01:56:32.978Z,9.58
2017-10-21T01:59:02.280Z,9.57
2017-10-21T02:01:30.731Z,9.63
2017-10-21T02:03:59.923Z,9.50
2017-10-21T02:06:29.217Z,9.55
2017-10-21T02:08:59.458Z,9.51
2017-10-21T02:11:28.730Z,9.50
2017-10-21T02:13:57.151Z,9.43
2017-10-21T02:16:27.669Z,9.50
2017-10-21T02:18:56.976Z,9.58
2017-10-21T02:21:26.267Z,9.65
2017-10-21T02:23:55.566Z,9.69
2017-10-21T02:26:25.128Z,9.69
2017-10-21T02:28:53.530Z,9.75
2017-10-21T02:31:26.806Z,9.76
2017-10-21T02:33:55.203Z,9.72
2017-10-21T02:36:23.591Z,9.72
2017-10-21T02:38:55.672Z,9.75
2017-10-21T02:41:24.964Z,9.82
2017-10-21T02:43:55.519Z,9.85
2017-10-21T02:46:24.809Z,9.84
2017-10-21T02:48:54.096Z,9.88
2017-10-21T02:51:22.484Z,9.94
2017-10-21T02:53:51.811Z,9.85
2017-10-21T02:56:20.197Z,9.87
2017-10-21T02:58:48.536Z,9.84
2017-10-21T03:01:16.935Z,9.91
2017-10-21T03:03:46.220Z,9.97
2017-10-21T03:06:14.625Z,9.93
2017-10-21T03:08:42.975Z,10.03
2017-10-21T03:11:15.308Z,10.06
2017-10-21T03:13:43.726Z,10.11
2017-10-21T03:16:12.116Z,10.02
2017-10-21T03:18:40.512Z,10.04
2017-10-21T03:21:09.829Z,10.13
2017-10-21T03:23:44.072Z,10.17
2017-10-21T03:26:12.393Z,10.20
2017-10-21T03:28:42.945Z,10.24
2017-10-21T03:31:12.230Z,10.23
2017-10-21T03:33:41.543Z,10.29
2017-10-21T03:36:10.853Z,10.33
2017-10-21T03:38:40.147Z,10.37
2017-10-21T03:41:09.445Z,10.30
2017-10-21T03:43:39.501Z,10.36
2017-10-21T03:46:08.058Z,10.34
2017-10-21T03:48:37.350Z,10.38
2017-10-21T03:51:06.738Z,10.37
2017-10-21T03:53:36.267Z,10.41
2017-10-21T03:56:05.620Z,10.44
2017-10-21T03:58:34.025Z,10.42
2017-10-21T04:01:02.379Z,10.50
2017-10-21T04:03:32.871Z,10.48
2017-10-21T04:06:03.383Z,10.46
2017-10-21T04:08:33.527Z,10.53
2017-10-21T04:11:01.975Z,10.59
2017-10-21T04:13:31.343Z,10.60
2017-10-21T04:16:00.700Z,10.49
2017-10-21T04:18:29.926Z,10.53
2017-10-21T04:20:58.280Z,10.63
2017-10-21T04:23:27.542Z,10.60
2017-10-21T04:25:55.955Z,10.64
2017-10-21T04:28:25.241Z,10.66
2017-10-21T04:30:53.643Z,10.67
2017-10-21T04:33:23.081Z,10.76
2017-10-21T04:35:51.608Z,10.73
2017-10-21T04:38:20.109Z,10.76
2017-10-21T04:40:48.433Z,10.85
2017-10-21T04:43:16.793Z,10.88
2017-10-21T04:45:45.142Z,10.96
2017-10-21T04:48:14.462Z,11.02
2017-10-21T04:50:42.844Z,11.08
2017-10-21T04:53:11.204Z,11.13
2017-10-21T04:55:40.532Z,11.17
2017-10-21T04:58:08.885Z,11.23
2017-10-21T05:00:38.604Z,11.25
2017-10-21T05:03:06.997Z,11.28
2017-10-21T05:05:35.317Z,11.28
2017-10-21T05:08:03.661Z,11.31
2017-10-21T05:10:32.004Z,11.30
2017-10-21T05:13:01.328Z,11.32
2017-10-21T05:15:30.617Z,11.36
2017-10-21T05:17:59.932Z,11.38
2017-10-21T05:20:29.209Z,11.34
2017-10-21T05:22:58.537Z,11.35
2017-10-21T05:25:26.931Z,11.36
2017-10-21T05:27:55.271Z,11.38
2017-10-21T05:30:25.544Z,11.40
2017-10-21T05:32:54.793Z,11.40
2017-10-21T05:35:23.202Z,11.43
2017-10-21T05:37:51.557Z,11.41
2017-10-21T05:40:19.974Z,11.41
2017-10-21T05:42:48.340Z,11.44
2017-10-21T05:45:16.686Z,11.46
2017-10-21T05:47:45.095Z,11.50
2017-10-21T05:50:14.382Z,11.51
2017-10-21T05:52:43.691Z,11.51
2017-10-21T05:55:12.994Z,11.53
2017-10-21T05:57:42.297Z,11.54
2017-10-21T06:00:11.617Z,11.58
2017-10-21T06:02:39.970Z,11.61
2017-10-21T06:05:09.304Z,11.60
2017-10-21T06:07:37.652Z,11.62
2017-10-21T06:10:07.426Z,11.65
2017-10-21T06:12:35.958Z,11.63
2017-10-21T06:15:05.245Z,11.65
2017-10-21T06:17:39.343Z,11.68
2017-10-21T06:20:07.845Z,11.69
2017-10-21T06:22:37.159Z,11.66
2017-10-21T06:25:05.522Z,11.71
2017-10-21T06:27:33.934Z,11.71
2017-10-21T06:30:02.282Z,11.76
2017-10-21T06:32:30.680Z,11.74
2017-10-21T06:34:59.977Z,11.75
2017-10-21T06:37:29.278Z,11.78
2017-10-21T06:39:58.615Z,11.81
2017-10-21T06:42:26.986Z,11.88
2017-10-21T06:44:55.450Z,11.90
2017-10-21T06:47:23.774Z,11.94
2017-10-21T06:49:52.137Z,11.97
2017-10-21T06:52:20.498Z,11.97
2017-10-21T06:54:48.861Z,12.00
2017-10-21T06:57:18.179Z,12.00
2017-10-21T06:59:46.540Z,11.98
2017-10-21T07:02:15.329Z,12.00
2017-10-21T07:04:43.996Z,11.98
2017-10-21T07:07:12.321Z,12.05
2017-10-21T07:09:42.851Z,12.08
2017-10-21T07:12:11.203Z,12.14
2017-10-21T07:14:40.537Z,12.19
2017-10-21T07:17:08.940Z,12.23
2017-10-21T07:19:37.670Z,12.28
2017-10-21T07:22:06.000Z,12.35
2017-10-21T07:24:34.341Z,12.39
2017-10-21T07:27:03.666Z,12.45
2017-10-21T07:29:32.023Z,12.47
2017-10-21T07:32:01.338Z,12.51
2017-10-21T07:34:29.681Z,12.54
2017-10-21T07:36:58.500Z,12.53
2017-10-21T07:39:26.897Z,12.57
2017-10-21T07:41:55.816Z,12.62
2017-10-21T07:44:24.163Z,12.69
2017-10-21T07:46:52.506Z,12.76
2017-10-21T07:49:20.915Z,12.79
2017-10-21T07:51:49.272Z,12.86
2017-10-21T07:54:18.994Z,12.93
2017-10-21T07:56:47.561Z,13.00
2017-10-21T07:59:15.989Z,13.04
2017-10-21T08:01:44.339Z,13.08
2017-10-21T08:04:13.649Z,13.16
2017-10-21T08:06:42.042Z,13.22
2017-10-21T08:09:10.380Z,13.28
2017-10-21T08:11:38.784Z,13.30
2017-10-21T08:14:08.059Z,13.34
2017-10-21T08:16:36.438Z,13.42
2017-10-21T08:19:04.927Z,13.48
2017-10-21T08:21:33.371Z,13.54
2017-10-21T08:24:01.938Z,13.59
2017-10-21T08:26:30.312Z,13.68
2017-10-21T08:28:59.072Z,13.76
2017-10-21T08:31:27.419Z,13.89
2017-10-21T08:33:56.960Z,13.96
2017-10-21T08:36:26.267Z,14.07
2017-10-21T08:38:55.565Z,14.12
2017-10-21T08:41:24.879Z,14.20
2017-10-21T08:43:53.249Z,14.26
2017-10-21T08:46:22.568Z,14.32
2017-10-21T08:48:50.922Z,14.37
2017-10-21T08:51:20.224Z,14.40
2017-10-21T08:53:49.596Z,14.43
2017-10-21T08:56:17.924Z,14.47
2017-10-21T08:58:46.361Z,14.51
2017-10-21T09:01:14.711Z,14.51
2017-10-21T09:03:43.095Z,14.50
2017-10-21T09:06:11.438Z,14.47
2017-10-21T09:08:40.780Z,14.44
2017-10-21T09:11:09.169Z,14.48
2017-10-21T09:13:37.483Z,14.49
2017-10-21T09:16:06.831Z,14.53
2017-10-21T09:18:36.070Z,14.57
2017-10-21T09:21:04.489Z,14.57
2017-10-21T09:23:32.861Z,14.58
2017-10-21T09:26:02.159Z,14.62
2017-10-21T09:28:31.469Z,14.67
2017-10-21T09:30:59.830Z,14.72
2017-10-21T09:33:29.178Z,14.76
2017-10-21T09:35:57.518Z,14.78
2017-10-21T09:38:26.859Z,14.77
2017-10-21T09:40:55.285Z,14.74
2017-10-21T09:43:24.816Z,14.74
2017-10-21T09:45:54.130Z,14.75
2017-10-21T09:48:22.489Z,14.79
2017-10-21T09:50:51.825Z,14.81
2017-10-21T09:53:20.307Z,14.82
2017-10-21T09:55:49.273Z,14.85
2017-10-21T09:58:17.608Z,14.87
2017-10-21T10:00:45.949Z,14.88
2017-10-21T10:03:14.340Z,14.89
2017-10-21T10:05:42.664Z,14.91
2017-10-21T10:08:11.112Z,14.94
2017-10-21T10:10:39.445Z,14.95
2017-10-21T10:13:09.174Z,14.98
2017-10-21T10:15:37.521Z,15.00
2017-10-21T10:18:05.843Z,15.01
2017-10-21T10:20:34.200Z,15.02
2017-10-21T10:23:03.515Z,15.02
2017-10-21T10:25:31.886Z,15.08
2017-10-21T10:28:01.180Z,15.09
2017-10-21T10:30:30.515Z,15.10
2017-10-21T10:32:58.871Z,15.11
2017-10-21T10:35:28.162Z,15.12
2017-10-21T10:37:57.500Z,15.15
2017-10-21T10:40:25.824Z,15.15
2017-10-21T10:42:54.233Z,15.12
2017-10-21T10:45:23.593Z,15.12
2017-10-21T10:47:53.154Z,15.14
2017-10-21T10:50:21.503Z,15.13
2017-10-21T10:52:50.805Z,15.17
2017-10-21T10:55:19.232Z,15.17
2017-10-21T10:57:47.579Z,15.18
2017-10-21T11:00:16.910Z,15.13
2017-10-21T11:02:45.270Z,15.09
2017-10-21T11:05:13.674Z,15.13
2017-10-21T11:07:42.019Z,15.14
2017-10-21T11:10:11.354Z,15.18
2017-10-21T11:12:39.767Z,15.17
2017-10-21T11:15:08.091Z,15.14
2017-10-21T11:17:36.463Z,15.18
2017-10-21T11:20:05.747Z,15.22
2017-10-21T11:22:34.162Z,15.20
2017-10-21T11:25:02.525Z,15.18
2017-10-21T11:27:31.839Z,15.23
2017-10-21T11:30:00.241Z,15.26
2017-10-21T11:32:28.618Z,15.27
2017-10-21T11:34:57.016Z,15.31
2017-10-21T11:37:25.344Z,15.33
2017-10-21T11:39:54.676Z,15.34
2017-10-21T11:42:23.108Z,15.37
2017-10-21T11:44:51.443Z,15.41
2017-10-21T11:47:19.853Z,15.43
2017-10-21T11:49:48.192Z,15.41
2017-10-21T11:52:16.571Z,15.39
2017-10-21T11:54:44.929Z,15.48
2017-10-21T11:57:14.228Z,15.54
2017-10-21T11:59:43.533Z,15.53
2017-10-21T12:02:12.832Z,15.55
2017-10-21T12:04:42.541Z,15.55
2017-10-21T12:07:11.734Z,15.57
2017-10-21T12:09:41.070Z,15.55
2017-10-21T12:12:10.375Z,15.53
2017-10-21T12:14:38.732Z,15.54
2017-10-21T12:17:07.112Z,15.57
2017-10-21T12:19:35.476Z,15.58
2017-10-21T12:22:04.804Z,15.60
2017-10-21T12:24:35.310Z,15.61
2017-10-21T12:27:04.695Z,15.60
2017-10-21T12:29:33.031Z,15.57
2017-10-21T12:32:01.375Z,15.54
2017-10-21T12:34:30.680Z,15.50
2017-10-21T12:36:59.986Z,15.50
2017-10-21T12:39:29.287Z,15.50
2017-10-21T12:41:58.588Z,15.49
2017-10-21T12:44:27.874Z,15.44
2017-10-21T12:46:57.262Z,15.48
2017-10-21T12:49:25.580Z,15.43
2017-10-21T12:51:53.960Z,15.35
2017-10-21T12:54:22.345Z,15.36
2017-10-21T12:56:50.697Z,15.40
2017-10-21T12:59:20.035Z,15.40
2017-10-21T13:01:49.886Z,15.38
2017-10-21T13:04:18.319Z,15.38
2017-10-21T13:06:47.596Z,15.40
2017-10-21T13:09:16.939Z,15.39
2017-10-21T13:11:45.308Z,15.33
2017-10-21T13:14:13.675Z,15.32
2017-10-21T13:16:42.998Z,15.30
2017-10-21T13:19:11.342Z,15.25
2017-10-21T13:21:40.668Z,15.28
2017-10-21T13:24:09.046Z,15.32
2017-10-21T13:26:37.436Z,15.28
2017-10-21T13:29:05.775Z,15.30
2017-10-21T13:31:34.193Z,15.28
2017-10-21T13:34:02.540Z,15.29
2017-10-21T13:36:31.894Z,15.18
2017-10-21T13:39:00.248Z,15.25
2017-10-21T13:41:28.665Z,15.28
2017-10-21T13:43:57.012Z,15.34
2017-10-21T13:46:25.371Z,15.28
2017-10-21T13:48:54.707Z,15.26
2017-10-21T13:51:23.060Z,15.22
2017-10-21T13:53:52.371Z,15.26
2017-10-21T13:56:20.762Z,15.30
2017-10-21T13:58:49.841Z,15.27
2017-10-21T14:01:18.195Z,15.30
2017-10-21T14:03:46.528Z,15.30
2017-10-21T14:06:14.873Z,15.34
2017-10-21T14:08:44.174Z,15.29
2017-10-21T14:11:13.516Z,15.25
2017-10-21T14:13:43.186Z,15.29
2017-10-21T14:16:11.528Z,15.25
2017-10-21T14:18:39.851Z,15.31
2017-10-21T14:21:08.257Z,15.31
2017-10-21T14:23:36.594Z,15.32
2017-10-21T14:26:05.910Z,15.25
2017-10-21T14:28:34.281Z,15.23
2017-10-21T14:31:04.025Z,15.17
2017-10-21T14:33:32.616Z,15.20
2017-10-21T14:36:02.803Z,15.24
2017-10-21T14:38:32.134Z,15.22
2017-10-21T14:41:00.479Z,15.19
2017-10-21T14:43:29.812Z,15.18
2017-10-21T14:45:58.147Z,15.13
2017-10-21T14:48:26.562Z,15.16
2017-10-21T14:50:55.845Z,15.21
2017-10-21T14:53:24.229Z,15.23
2017-10-21T14:55:53.546Z,15.27
2017-10-21T14:58:21.900Z,15.28
2017-10-21T15:00:51.241Z,15.28
2017-10-21T15:03:19.585Z,15.26
2017-10-21T15:05:49.298Z,15.27
2017-10-21T15:08:17.626Z,15.30
2017-10-21T15:10:46.888Z,15.25
2017-10-21T15:13:16.312Z,15.24
2017-10-21T15:15:44.867Z,15.16
2017-10-21T15:18:17.946Z,15.19
2017-10-21T15:20:46.263Z,15.17
2017-10-21T15:23:14.719Z,15.13
2017-10-21T15:25:43.056Z,15.13
2017-10-21T15:28:11.379Z,15.08
2017-10-21T15:30:40.712Z,15.03
2017-10-21T15:33:09.046Z,15.04
2017-10-21T15:35:38.471Z,15.00
2017-10-21T15:38:08.037Z,14.94
2017-10-21T15:40:37.595Z,14.91
2017-10-21T15:43:09.673Z,14.91
2017-10-21T15:45:38.027Z,14.91
2017-10-21T15:48:07.468Z,14.90
2017-10-21T15:50:36.009Z,14.91
2017-10-21T15:53:05.740Z,14.83
2017-10-21T15:55:34.122Z,14.81
2017-10-21T15:58:02.501Z,14.80
2017-10-21T16:00:30.966Z,14.76
2017-10-21T16:03:00.071Z,14.68
2017-10-21T16:05:29.497Z,14.61
2017-10-21T16:07:58.103Z,14.61
2017-10-21T16:10:27.773Z,14.55
2017-10-21T16:12:56.106Z,14.50
2017-10-21T16:15:25.664Z,14.52
2017-10-21T16:17:54.111Z,14.44
2017-10-21T16:20:23.340Z,14.35
2017-10-21T16:22:52.887Z,14.38
2017-10-21T16:25:21.308Z,14.33
2017-10-21T16:27:50.436Z,14.26
2017-10-21T16:30:19.309Z,14.21
2017-10-21T16:32:48.627Z,14.16
2017-10-21T16:35:17.061Z,14.17
2017-10-21T16:37:45.419Z,14.07
2017-10-21T16:40:13.881Z,14.08
2017-10-21T16:42:42.235Z,14.03
2017-10-21T16:45:11.850Z,14.02
2017-10-21T16:47:40.200Z,13.93
2017-10-21T16:50:08.537Z,13.83
2017-10-21T16:52:39.067Z,13.67
2017-10-21T16:55:07.393Z,13.59
2017-10-21T16:57:38.100Z,13.53
2017-10-21T17:00:06.648Z,13.44
2017-10-21T17:02:35.417Z,13.38
2017-10-21T17:05:03.732Z,13.34
2017-10-21T17:07:32.361Z,13.35
2017-10-21T17:10:00.751Z,13.28
2017-10-21T17:12:29.149Z,13.30
2017-10-21T17:14:58.661Z,13.28
2017-10-21T17:17:27.126Z,13.30
2017-10-21T17:19:56.859Z,13.31
2017-10-21T17:22:25.211Z,13.13
2017-10-21T17:24:54.408Z,13.15
2017-10-21T17:27:23.813Z,13.21
2017-10-21T17:29:53.312Z,13.13
2017-10-21T17:32:27.626Z,13.03
2017-10-21T17:34:55.974Z,12.99
2017-10-21T17:37:24.311Z,12.99
2017-10-21T17:39:53.614Z,13.05
2017-10-21T17:42:23.105Z,13.00
2017-10-21T17:44:51.759Z,12.88
2017-10-21T17:47:20.262Z,12.89
2017-10-21T17:49:48.767Z,12.89
2017-10-21T17:52:17.087Z,12.90
2017-10-21T17:54:45.551Z,12.87
2017-10-21T17:57:13.983Z,12.82
2017-10-21T17:59:42.464Z,12.84
2017-10-21T18:02:10.990Z,12.83
2017-10-21T18:04:40.029Z,12.84
2017-10-21T18:07:08.681Z,12.86
2017-10-21T18:09:37.041Z,12.86
2017-10-21T18:12:06.232Z,12.73
2017-10-21T18:14:35.936Z,12.68
2017-10-21T18:17:04.238Z,12.70
2017-10-21T18:19:32.629Z,12.70
2017-10-21T18:22:01.274Z,12.72
2017-10-21T18:24:29.748Z,12.68
2017-10-21T18:26:58.150Z,12.61
2017-10-21T18:29:27.362Z,12.54
2017-10-21T18:31:56.762Z,12.47
2017-10-21T18:34:25.944Z,12.55
2017-10-21T18:36:54.462Z,12.54
2017-10-21T18:39:24.049Z,12.55
2017-10-21T18:41:53.231Z,12.52
2017-10-21T18:44:21.729Z,12.46
2017-10-21T18:46:50.900Z,12.51
2017-10-21T18:49:19.401Z,12.48
2017-10-21T18:51:48.991Z,12.41
2017-10-21T18:54:17.452Z,12.45
2017-10-21T18:56:46.086Z,12.49
2017-10-21T18:59:15.265Z,12.50
2017-10-21T19:01:46.850Z,12.49
2017-10-21T19:04:16.029Z,12.43
2017-10-21T19:06:46.674Z,12.49
2017-10-21T19:09:15.873Z,12.52
2017-10-21T19:11:45.597Z,12.47
2017-10-21T19:14:15.152Z,12.54
2017-10-21T19:16:45.994Z,12.42
2017-10-21T19:19:15.288Z,12.42
2017-10-21T19:21:45.738Z,12.42
2017-10-21T19:24:17.951Z,12.44
2017-10-21T19:26:50.585Z,12.45
2017-10-21T19:29:22.367Z,12.48
2017-10-21T19:31:51.610Z,12.46
2017-10-21T19:34:22.200Z,12.44
2017-10-21T19:36:51.683Z,12.48
2017-10-21T19:39:22.067Z,12.48
2017-10-21T19:41:51.582Z,12.49
2017-10-21T19:44:22.206Z,12.47
2017-10-21T19:46:50.521Z,12.52
2017-10-21T19:49:20.181Z,12.53
2017-10-21T19:51:49.779Z,12.49
2017-10-21T19:54:18.971Z,12.50
2017-10-21T19:56:48.397Z,12.46
2017-10-21T19:59:21.068Z,12.49
2017-10-21T20:01:49.400Z,12.48
2017-10-21T20:04:19.064Z,12.48
2017-10-21T20:06:48.935Z,12.43
2017-10-21T20:09:17.243Z,12.44
2017-10-21T20:11:46.529Z,12.46
2017-10-21T20:14:15.983Z,12.45
2017-10-21T20:16:44.498Z,12.47
2017-10-21T20:19:13.007Z,12.38
2017-10-21T20:21:42.183Z,12.46
2017-10-21T20:24:10.693Z,12.45
2017-10-21T20:26:40.789Z,12.44
2017-10-21T20:29:09.198Z,12.45
2017-10-21T20:31:38.627Z,12.47
2017-10-21T20:34:08.088Z,12.46
2017-10-21T20:36:37.527Z,12.44
2017-10-21T20:39:05.931Z,12.45
2017-10-21T20:41:34.468Z,12.40
2017-10-21T20:44:03.899Z,12.40
2017-10-21T20:46:33.476Z,12.36
2017-10-21T20:49:01.799Z,12.31
2017-10-21T20:51:31.198Z,12.33
2017-10-21T20:53:59.505Z,12.25
2017-10-21T20:56:27.937Z,12.25
2017-10-21T20:58:56.258Z,12.28
2017-10-21T21:01:24.714Z,12.21
2017-10-21T21:03:53.279Z,12.23
2017-10-21T21:06:22.682Z,12.24
2017-10-21T21:08:53.689Z,12.26
2017-10-21T21:11:26.817Z,12.24
2017-10-21T21:13:58.516Z,12.28
2017-10-21T21:16:26.973Z,12.29
2017-10-21T21:18:55.342Z,12.28
2017-10-21T21:21:23.799Z,12.25
2017-10-21T21:23:55.682Z,12.21
2017-10-21T21:26:24.063Z,12.18
2017-10-21T21:28:53.369Z,12.19
2017-10-21T21:31:22.100Z,12.18
2017-10-21T21:33:50.427Z,12.20
2017-10-21T21:36:19.702Z,12.15
2017-10-21T21:38:49.128Z,12.14
2017-10-21T21:41:21.723Z,12.09
2017-10-21T21:43:50.206Z,12.09
2017-10-21T21:46:19.716Z,12.04
2017-10-21T21:48:48.070Z,12.09
2017-10-21T21:51:17.490Z,12.06
2017-10-21T21:53:47.286Z,11.99
2017-10-21T21:56:16.962Z,12.01
2017-10-21T21:58:46.117Z,11.96
2017-10-21T22:01:14.563Z,11.95
2017-10-21T22:03:43.023Z,11.98
2017-10-21T22:06:11.344Z,11.96
2017-10-21T22:08:40.760Z,11.97
2017-10-21T22:11:09.093Z,11.94
2017-10-21T22:13:38.747Z,11.96
2017-10-21T22:16:07.925Z,11.98
2017-10-21T22:18:37.220Z,11.98
2017-10-21T22:21:06.629Z,11.95
2017-10-21T22:23:35.846Z,12.02
2017-10-21T22:26:05.327Z,11.97
2017-10-21T22:28:34.460Z,11.91
2017-10-21T22:31:02.843Z,11.84
2017-10-21T22:33:31.950Z,11.86
2017-10-21T22:36:01.531Z,11.91
2017-10-21T22:38:32.064Z,11.94
2017-10-21T22:41:01.237Z,11.92
2017-10-21T22:43:30.742Z,11.93
2017-10-21T22:45:59.221Z,11.96
2017-10-21T22:48:28.969Z,11.87
2017-10-21T22:50:57.333Z,11.89
2017-10-21T22:53:26.524Z,11.82
2017-10-21T22:55:57.098Z,11.86
2017-10-21T22:58:27.597Z,11.86
2017-10-21T23:00:56.940Z,11.86
2017-10-21T23:03:29.023Z,11.85
2017-10-21T23:05:57.393Z,11.87
2017-10-21T23:08:25.724Z,11.84
2017-10-21T23:10:55.424Z,11.80
2017-10-21T23:13:23.737Z,11.80
2017-10-21T23:15:54.227Z,11.72
2017-10-21T23:18:29.364Z,11.75
2017-10-21T23:20:57.758Z,11.76
2017-10-21T23:23:27.086Z,11.78
2017-10-21T23:25:55.435Z,11.79
2017-10-21T23:28:24.167Z,11.74
2017-10-21T23:30:52.527Z,11.69
2017-10-21T23:33:22.264Z,11.74
2017-10-21T23:35:50.810Z,11.75
2017-10-21T23:38:20.106Z,11.69
2017-10-21T23:40:49.434Z,11.65
2017-10-21T23:43:17.830Z,11.66
2017-10-21T23:45:46.567Z,11.61
2017-10-21T23:48:14.912Z,11.70
2017-10-21T23:50:43.657Z,11.66
2017-10-21T23:53:12.862Z,11.55
2017-10-21T23:55:42.169Z,11.54
2017-10-21T23:58:12.686Z,11.46
